createdAt,value
2022-09-17T00:04:05.004Z,98.25
2022-09-17T00:09:07.889Z,97.90
2022-09-17T00:14:14.345Z,98.55
2022-09-17T00:19:18.969Z,98.14
2022-09-17T00:24:20.906Z,98.84
2022-09-17T00:29:22.440Z,98.92
2022-09-17T00:34:23.998Z,98.51
2022-09-17T00:39:25.542Z,98.44
2022-09-17T00:44:48.198Z,98.14
2022-09-17T00:49:55.589Z,98.34
2022-09-17T00:55:05.879Z,98.96
2022-09-17T01:07:08.390Z,98.62
2022-09-17T01:12:12.807Z,99.17
2022-09-17T01:17:43.499Z,98.22
2022-09-17T01:23:13.038Z,98.42
2022-09-17T01:28:21.158Z,97.68
2022-09-17T01:33:30.684Z,98.71
2022-09-17T01:38:55.192Z,98.62
2022-09-17T01:44:11.425Z,98.31
2022-09-17T01:49:16.609Z,98.74
2022-09-17T01:54:26.700Z,98.94
2022-09-17T01:59:36.945Z,99.81
2022-09-17T02:04:52.263Z,99.11
2022-09-17T02:10:07.061Z,99.07
2022-09-17T02:15:15.699Z,99.62
2022-09-17T02:20:22.819Z,100.00
2022-09-17T02:25:33.220Z,100.00
2022-09-17T02:30:35.423Z,100.00
2022-09-17T02:35:37.909Z,100.00
2022-09-17T02:40:48.749Z,100.00
2022-09-17T02:46:15.697Z,100.00
2022-09-17T02:51:33.199Z,100.00
2022-09-17T02:56:37.391Z,100.00
2022-09-17T03:01:45.035Z,100.00
2022-09-17T03:06:47.655Z,100.00
2022-09-17T03:11:49.223Z,100.00
2022-09-17T03:16:50.752Z,100.00
2022-09-17T03:21:52.267Z,100.00
2022-09-17T03:26:53.854Z,100.00
2022-09-17T03:31:55.353Z,100.00
2022-09-17T03:36:57.077Z,100.00
2022-09-17T03:41:58.582Z,100.00
2022-09-17T03:47:00.087Z,100.00
2022-09-17T03:52:01.982Z,100.00
2022-09-17T03:57:03.659Z,100.00
2022-09-17T04:02:05.268Z,100.00
2022-09-17T04:07:06.858Z,100.00
2022-09-17T04:12:08.385Z,100.00
2022-09-17T04:17:09.998Z,100.00
2022-09-17T04:22:11.571Z,100.00
2022-09-17T04:27:13.106Z,100.00
2022-09-17T04:32:14.658Z,100.00
2022-09-17T04:37:16.404Z,100.00
2022-09-17T04:42:18.547Z,100.00
2022-09-17T04:47:20.074Z,100.00
2022-09-17T04:52:21.565Z,100.00
2022-09-17T04:57:25.517Z,100.00
2022-09-17T05:02:27.211Z,100.00
2022-09-17T05:07:28.770Z,100.00
2022-09-17T05:12:34.354Z,100.00
2022-09-17T05:17:36.121Z,100.00
2022-09-17T05:22:55.801Z,100.00
2022-09-17T05:27:57.302Z,100.00
2022-09-17T05:33:01.115Z,100.00
2022-09-17T05:38:07.757Z,100.00
2022-09-17T05:43:09.746Z,100.00
2022-09-17T05:48:15.160Z,100.00
2022-09-17T05:53:16.785Z,99.44
2022-09-17T05:58:19.674Z,99.90
2022-09-17T06:03:22.882Z,98.72
2022-09-17T06:08:25.974Z,99.21
2022-09-17T06:13:27.487Z,98.72
2022-09-17T06:18:30.811Z,100.00
2022-09-17T06:23:37.231Z,99.93
2022-09-17T06:28:41.631Z,100.00
2022-09-17T06:33:43.463Z,100.00
2022-09-17T06:38:45.300Z,100.00
2022-09-17T06:43:46.859Z,100.00
2022-09-17T06:48:48.355Z,100.00
2022-09-17T06:53:49.987Z,100.00
2022-09-17T06:58:51.552Z,100.00
2022-09-17T07:03:53.335Z,100.00
2022-09-17T07:08:54.903Z,100.00
2022-09-17T07:13:56.531Z,100.00
2022-09-17T07:18:58.132Z,100.00
2022-09-17T07:23:59.646Z,100.00
2022-09-17T07:29:01.315Z,100.00
2022-09-17T07:34:03.200Z,100.00
2022-09-17T07:39:04.911Z,99.86
2022-09-17T07:44:09.770Z,99.82
2022-09-17T07:49:11.272Z,98.92
2022-09-17T07:54:12.820Z,96.05
2022-09-17T07:59:14.366Z,94.20
2022-09-17T08:04:15.932Z,93.33
2022-09-17T08:09:18.564Z,92.30
2022-09-17T08:14:20.103Z,91.12
2022-09-17T08:19:22.234Z,90.83
2022-09-17T08:24:25.887Z,89.19
2022-09-17T08:29:28.656Z,89.21
2022-09-17T08:34:31.579Z,89.57
2022-09-17T08:39:33.096Z,87.95
2022-09-17T08:44:41.323Z,87.24
2022-09-17T08:49:53.950Z,86.29
2022-09-17T08:55:07.667Z,85.51
2022-09-17T09:00:17.119Z,83.82
2022-09-17T09:05:22.782Z,84.91
2022-09-17T09:10:39.371Z,83.31
2022-09-17T09:15:47.681Z,83.34
2022-09-17T09:20:55.751Z,82.72
2022-09-17T09:26:16.075Z,81.42
2022-09-17T09:31:42.550Z,79.67
2022-09-17T09:36:45.373Z,78.99
2022-09-17T09:41:54.320Z,78.63
2022-09-17T09:47:12.368Z,78.42
2022-09-17T09:52:42.867Z,77.06
2022-09-17T09:57:49.852Z,77.45
2022-09-17T10:03:01.729Z,77.79
2022-09-17T10:08:14.225Z,75.08
2022-09-17T10:13:17.739Z,74.69
2022-09-17T10:18:22.078Z,73.18
2022-09-17T10:23:26.517Z,73.70
2022-09-17T10:28:50.406Z,71.99
2022-09-17T10:34:01.269Z,71.16
2022-09-17T10:39:28.791Z,71.24
2022-09-17T10:44:33.550Z,71.50
2022-09-17T10:49:40.937Z,73.36
2022-09-17T10:55:19.918Z,71.58
2022-09-17T11:00:23.556Z,69.26
2022-09-17T11:05:41.496Z,68.05
2022-09-17T11:11:01.713Z,68.73
2022-09-17T11:16:34.256Z,68.36
2022-09-17T11:21:46.622Z,70.61
2022-09-17T11:26:57.741Z,68.63
2022-09-17T11:32:24.106Z,68.10
2022-09-17T11:37:37.267Z,71.39
2022-09-17T11:42:56.241Z,73.88
2022-09-17T11:48:11.864Z,74.05
2022-09-17T11:53:25.595Z,70.99
2022-09-17T11:58:56.574Z,70.42
2022-09-17T12:04:33.698Z,72.37
2022-09-17T12:09:39.204Z,77.71
2022-09-17T12:14:51.438Z,81.88
2022-09-17T12:20:25.031Z,83.80
2022-09-17T12:25:34.198Z,84.63
2022-09-17T12:30:44.231Z,85.86
2022-09-17T12:36:05.253Z,87.34
2022-09-17T12:41:15.735Z,87.56
2022-09-17T12:46:30.034Z,87.59
2022-09-17T12:51:31.555Z,86.83
2022-09-17T12:56:41.890Z,86.22
2022-09-17T13:01:52.424Z,85.20
2022-09-17T13:06:59.623Z,84.60
2022-09-17T13:12:27.443Z,83.37
2022-09-17T13:18:27.034Z,83.36
2022-09-17T13:23:42.271Z,84.45
2022-09-17T13:28:47.863Z,83.82
2022-09-17T13:33:55.317Z,83.40
2022-09-17T13:38:57.038Z,80.53
2022-09-17T13:43:59.087Z,77.86
2022-09-17T13:49:04.505Z,76.57
2022-09-17T13:54:08.984Z,73.65
2022-09-17T13:59:18.091Z,74.11
2022-09-17T14:04:35.850Z,73.75
2022-09-17T14:09:55.189Z,73.95
2022-09-17T14:14:57.243Z,74.76
2022-09-17T14:19:59.154Z,74.61
2022-09-17T14:25:01.756Z,77.36
2022-09-17T14:30:03.227Z,81.17
2022-09-17T14:35:17.869Z,80.38
2022-09-17T14:40:24.048Z,79.34
2022-09-17T14:45:36.790Z,79.23
2022-09-17T14:50:38.445Z,77.86
2022-09-17T14:55:41.407Z,76.40
2022-09-17T15:00:52.030Z,75.41
2022-09-17T15:05:54.357Z,74.57
2022-09-17T15:11:06.763Z,74.16
2022-09-17T15:16:25.275Z,74.03
2022-09-17T15:21:35.924Z,73.47
2022-09-17T15:26:41.547Z,72.92
2022-09-17T15:31:43.149Z,72.17
2022-09-17T15:37:04.839Z,70.90
2022-09-17T15:42:18.061Z,70.66
2022-09-17T15:47:36.773Z,70.97
2022-09-17T15:52:38.328Z,71.16
2022-09-17T15:57:39.880Z,70.71
2022-09-17T16:02:41.569Z,71.94
2022-09-17T16:07:45.581Z,73.69
2022-09-17T16:12:49.622Z,74.90
2022-09-17T16:17:51.135Z,75.23
2022-09-17T16:22:53.535Z,75.86
2022-09-17T16:28:04.205Z,77.27
2022-09-17T16:33:06.823Z,78.96
2022-09-17T16:38:09.982Z,80.69
2022-09-17T16:43:11.552Z,81.76
2022-09-17T16:48:13.137Z,83.05
2022-09-17T16:53:14.691Z,83.96
2022-09-17T16:58:16.394Z,85.30
2022-09-17T17:03:18.043Z,91.62
2022-09-17T17:08:19.534Z,100.00
2022-09-17T17:13:21.076Z,100.00
2022-09-17T17:18:24.448Z,100.00
2022-09-17T17:23:25.934Z,100.00
2022-09-17T17:28:27.473Z,100.00
2022-09-17T17:33:29.291Z,100.00
2022-09-17T17:38:30.857Z,100.00
2022-09-17T17:43:32.626Z,100.00
2022-09-17T17:48:34.767Z,100.00
2022-09-17T17:53:37.003Z,100.00
2022-09-17T17:58:39.650Z,100.00
2022-09-17T18:03:41.383Z,100.00
2022-09-17T18:08:44.107Z,100.00
2022-09-17T18:13:46.007Z,100.00
2022-09-17T18:18:47.816Z,100.00
2022-09-17T18:23:50.503Z,100.00
2022-09-17T18:28:52.633Z,100.00
2022-09-17T18:33:58.468Z,100.00
2022-09-17T18:44:26.849Z,100.00
2022-09-17T18:49:28.358Z,100.00
2022-09-17T18:54:29.862Z,100.00
2022-09-17T18:59:36.215Z,100.00
2022-09-17T19:04:37.701Z,100.00
2022-09-17T19:09:39.222Z,100.00
2022-09-17T19:14:40.714Z,100.00
2022-09-17T19:19:42.207Z,100.00
2022-09-17T19:24:43.701Z,100.00
2022-09-17T19:29:45.255Z,100.00
2022-09-17T19:34:46.841Z,100.00
2022-09-17T19:39:48.379Z,100.00
2022-09-17T19:44:49.874Z,100.00
2022-09-17T19:49:52.436Z,100.00
2022-09-17T19:54:53.963Z,100.00
2022-09-17T19:59:55.454Z,100.00
2022-09-17T20:04:56.968Z,100.00
2022-09-17T20:09:59.408Z,100.00
2022-09-17T20:15:00.937Z,100.00
2022-09-17T20:20:03.495Z,100.00
2022-09-17T20:25:05.687Z,100.00
2022-09-17T20:30:07.756Z,100.00
2022-09-17T20:35:09.571Z,100.00
2022-09-17T20:40:11.781Z,100.00
2022-09-17T20:45:13.436Z,100.00
2022-09-17T20:50:15.021Z,100.00
2022-09-17T20:55:17.607Z,100.00
2022-09-17T21:00:21.187Z,100.00
2022-09-17T21:05:22.740Z,100.00
2022-09-17T21:10:26.609Z,100.00
2022-09-17T21:15:28.801Z,100.00
2022-09-17T21:20:30.301Z,100.00
2022-09-17T21:25:31.812Z,100.00
2022-09-17T21:30:33.331Z,100.00
2022-09-17T21:35:34.893Z,100.00
2022-09-17T21:40:36.505Z,100.00
2022-09-17T21:45:40.443Z,100.00
2022-09-17T21:50:41.973Z,100.00
2022-09-17T21:55:43.458Z,100.00
2022-09-17T22:00:44.957Z,100.00
2022-09-17T22:05:46.529Z,100.00
2022-09-17T22:10:48.056Z,100.00
2022-09-17T22:15:58.679Z,100.00
2022-09-17T22:21:00.713Z,100.00
2022-09-17T22:26:04.105Z,100.00
2022-09-17T22:31:09.001Z,100.00
2022-09-17T22:36:16.403Z,100.00
2022-09-17T22:41:23.618Z,100.00
2022-09-17T22:46:27.779Z,100.00
2022-09-17T22:51:30.454Z,100.00
2022-09-17T22:56:35.091Z,100.00
2022-09-17T23:01:37.367Z,100.00
2022-09-17T23:06:42.039Z,100.00
2022-09-17T23:11:43.765Z,100.00
2022-09-17T23:16:47.646Z,100.00
2022-09-17T23:21:49.269Z,100.00
2022-09-17T23:26:50.841Z,100.00
2022-09-17T23:31:52.336Z,100.00
2022-09-17T23:36:53.848Z,100.00
2022-09-17T23:41:56.715Z,100.00
2022-09-17T23:46:58.311Z,100.00
2022-09-17T23:51:59.858Z,100.00
2022-09-17T23:57:01.382Z,100.00
